sensor_id;sensor_type;location;lat;lon;timestamp;P1;durP1;ratioP1;P2;durP2;ratioP2
78873;SDS011;68250;43.514;1.494;2023-12-20T00:05:01;17.02;;;9.32;;
78873;SDS011;68250;43.514;1.494;2023-12-20T00:07:27;16.70;;;9.07;;
78873;SDS011;68250;43.514;1.494;2023-12-20T00:09:52;19.03;;;8.87;;
78873;SDS011;68250;43.514;1.494;2023-12-20T00:12:18;18.73;;;9.93;;
78873;SDS011;68250;43.514;1.494;2023-12-20T00:14:44;16.17;;;9.27;;
78873;SDS011;68250;43.514;1.494;2023-12-20T00:17:09;16.80;;;9.20;;
78873;SDS011;68250;43.514;1.494;2023-12-20T00:19:35;17.98;;;9.20;;
78873;SDS011;68250;43.514;1.494;2023-12-20T00:22:00;17.70;;;9.80;;
78873;SDS011;68250;43.514;1.494;2023-12-20T00:24:26;18.67;;;9.32;;
78873;SDS011;68250;43.514;1.494;2023-12-20T00:26:52;16.83;;;9.00;;
78873;SDS011;68250;43.514;1.494;2023-12-20T00:29:17;16.33;;;9.10;;
78873;SDS011;68250;43.514;1.494;2023-12-20T00:31:43;17.37;;;8.97;;
78873;SDS011;68250;43.514;1.494;2023-12-20T00:34:08;15.88;;;9.13;;
78873;SDS011;68250;43.514;1.494;2023-12-20T00:36:34;15.03;;;8.20;;
78873;SDS011;68250;43.514;1.494;2023-12-20T00:39:00;15.25;;;9.13;;
78873;SDS011;68250;43.514;1.494;2023-12-20T00:41:25;16.92;;;8.98;;
78873;SDS011;68250;43.514;1.494;2023-12-20T00:43:51;15.53;;;8.40;;
78873;SDS011;68250;43.514;1.494;2023-12-20T00:46:16;15.60;;;8.63;;
78873;SDS011;68250;43.514;1.494;2023-12-20T00:48:42;14.55;;;8.45;;
78873;SDS011;68250;43.514;1.494;2023-12-20T00:51:07;16.70;;;8.83;;
78873;SDS011;68250;43.514;1.494;2023-12-20T00:53:33;15.95;;;8.77;;
78873;SDS011;68250;43.514;1.494;2023-12-20T00:55:58;15.03;;;8.00;;
78873;SDS011;68250;43.514;1.494;2023-12-20T00:58:24;15.57;;;8.30;;
78873;SDS011;68250;43.514;1.494;2023-12-20T01:04:01;15.55;;;8.52;;
78873;SDS011;68250;43.514;1.494;2023-12-20T01:06:26;15.73;;;8.30;;
78873;SDS011;68250;43.514;1.494;2023-12-20T01:08:52;16.75;;;8.75;;
78873;SDS011;68250;43.514;1.494;2023-12-20T01:11:17;16.75;;;8.35;;
78873;SDS011;68250;43.514;1.494;2023-12-20T01:13:43;13.87;;;7.83;;
78873;SDS011;68250;43.514;1.494;2023-12-20T01:16:11;13.53;;;8.13;;
78873;SDS011;68250;43.514;1.494;2023-12-20T01:18:37;13.18;;;8.10;;
78873;SDS011;68250;43.514;1.494;2023-12-20T01:21:04;14.15;;;8.10;;
78873;SDS011;68250;43.514;1.494;2023-12-20T01:23:30;15.88;;;8.18;;
78873;SDS011;68250;43.514;1.494;2023-12-20T01:25:56;12.50;;;7.88;;
78873;SDS011;68250;43.514;1.494;2023-12-20T01:28:21;14.57;;;8.47;;
78873;SDS011;68250;43.514;1.494;2023-12-20T01:30:47;17.73;;;8.52;;
78873;SDS011;68250;43.514;1.494;2023-12-20T01:33:13;13.60;;;7.93;;
78873;SDS011;68250;43.514;1.494;2023-12-20T01:35:38;14.07;;;7.93;;
78873;SDS011;68250;43.514;1.494;2023-12-20T01:38:04;16.20;;;8.60;;
78873;SDS011;68250;43.514;1.494;2023-12-20T01:40:29;16.27;;;8.63;;
78873;SDS011;68250;43.514;1.494;2023-12-20T01:42:58;14.97;;;8.30;;
78873;SDS011;68250;43.514;1.494;2023-12-20T01:45:25;19.10;;;9.27;;
78873;SDS011;68250;43.514;1.494;2023-12-20T01:47:50;19.23;;;9.23;;
78873;SDS011;68250;43.514;1.494;2023-12-20T01:50:16;17.92;;;8.27;;
78873;SDS011;68250;43.514;1.494;2023-12-20T01:52:42;14.27;;;8.07;;
78873;SDS011;68250;43.514;1.494;2023-12-20T01:55:08;18.08;;;9.02;;
78873;SDS011;68250;43.514;1.494;2023-12-20T01:57:39;16.37;;;8.40;;
78873;SDS011;68250;43.514;1.494;2023-12-20T02:00:09;12.45;;;7.75;;
78873;SDS011;68250;43.514;1.494;2023-12-20T02:02:36;14.48;;;7.82;;
78873;SDS011;68250;43.514;1.494;2023-12-20T02:05:02;13.52;;;7.80;;
78873;SDS011;68250;43.514;1.494;2023-12-20T02:07:28;13.55;;;8.05;;
78873;SDS011;68250;43.514;1.494;2023-12-20T02:09:54;14.43;;;7.53;;
78873;SDS011;68250;43.514;1.494;2023-12-20T02:12:20;13.05;;;7.05;;
78873;SDS011;68250;43.514;1.494;2023-12-20T02:14:46;12.10;;;7.35;;
78873;SDS011;68250;43.514;1.494;2023-12-20T02:17:12;11.77;;;6.67;;
78873;SDS011;68250;43.514;1.494;2023-12-20T02:19:37;13.43;;;7.78;;
78873;SDS011;68250;43.514;1.494;2023-12-20T02:22:09;12.77;;;7.43;;
78873;SDS011;68250;43.514;1.494;2023-12-20T02:24:35;13.77;;;7.25;;
78873;SDS011;68250;43.514;1.494;2023-12-20T02:27:01;11.57;;;7.40;;
78873;SDS011;68250;43.514;1.494;2023-12-20T02:29:26;12.70;;;7.70;;
78873;SDS011;68250;43.514;1.494;2023-12-20T02:31:52;14.23;;;7.55;;
78873;SDS011;68250;43.514;1.494;2023-12-20T02:34:17;11.93;;;7.33;;
78873;SDS011;68250;43.514;1.494;2023-12-20T02:39:52;12.97;;;7.00;;
78873;SDS011;68250;43.514;1.494;2023-12-20T02:42:18;12.45;;;7.07;;
78873;SDS011;68250;43.514;1.494;2023-12-20T02:44:44;10.93;;;6.63;;
78873;SDS011;68250;43.514;1.494;2023-12-20T02:47:11;11.52;;;7.00;;
78873;SDS011;68250;43.514;1.494;2023-12-20T02:49:37;12.07;;;7.17;;
78873;SDS011;68250;43.514;1.494;2023-12-20T02:52:03;11.63;;;7.13;;
78873;SDS011;68250;43.514;1.494;2023-12-20T02:54:28;11.83;;;6.70;;
78873;SDS011;68250;43.514;1.494;2023-12-20T02:56:54;11.30;;;6.70;;
78873;SDS011;68250;43.514;1.494;2023-12-20T02:59:20;11.43;;;6.90;;
78873;SDS011;68250;43.514;1.494;2023-12-20T03:01:45;12.50;;;6.93;;
78873;SDS011;68250;43.514;1.494;2023-12-20T03:04:11;11.35;;;7.00;;
78873;SDS011;68250;43.514;1.494;2023-12-20T03:06:37;12.60;;;7.03;;
78873;SDS011;68250;43.514;1.494;2023-12-20T03:12:03;11.97;;;7.27;;
78873;SDS011;68250;43.514;1.494;2023-12-20T03:14:29;11.63;;;6.55;;
78873;SDS011;68250;43.514;1.494;2023-12-20T03:16:54;10.35;;;6.82;;
78873;SDS011;68250;43.514;1.494;2023-12-20T03:19:20;10.18;;;6.75;;
78873;SDS011;68250;43.514;1.494;2023-12-20T03:21:46;12.20;;;6.30;;
78873;SDS011;68250;43.514;1.494;2023-12-20T03:24:12;10.33;;;5.43;;
78873;SDS011;68250;43.514;1.494;2023-12-20T03:26:37;12.00;;;6.30;;
78873;SDS011;68250;43.514;1.494;2023-12-20T03:29:03;11.82;;;6.43;;
78873;SDS011;68250;43.514;1.494;2023-12-20T03:31:29;10.30;;;6.03;;
78873;SDS011;68250;43.514;1.494;2023-12-20T03:33:54;10.73;;;6.13;;
78873;SDS011;68250;43.514;1.494;2023-12-20T03:36:20;11.10;;;6.30;;
78873;SDS011;68250;43.514;1.494;2023-12-20T03:38:45;12.63;;;6.95;;
78873;SDS011;68250;43.514;1.494;2023-12-20T03:41:11;11.83;;;6.60;;
78873;SDS011;68250;43.514;1.494;2023-12-20T03:43:36;12.43;;;6.50;;
78873;SDS011;68250;43.514;1.494;2023-12-20T03:46:02;14.25;;;7.22;;
78873;SDS011;68250;43.514;1.494;2023-12-20T03:48:29;12.23;;;6.80;;
78873;SDS011;68250;43.514;1.494;2023-12-20T03:50:56;12.55;;;6.75;;
78873;SDS011;68250;43.514;1.494;2023-12-20T03:53:22;14.20;;;7.00;;
78873;SDS011;68250;43.514;1.494;2023-12-20T03:55:47;11.83;;;7.07;;
78873;SDS011;68250;43.514;1.494;2023-12-20T03:58:13;13.35;;;7.22;;
78873;SDS011;68250;43.514;1.494;2023-12-20T04:00:38;12.63;;;6.73;;
78873;SDS011;68250;43.514;1.494;2023-12-20T04:03:04;12.60;;;6.77;;
78873;SDS011;68250;43.514;1.494;2023-12-20T04:05:29;12.85;;;7.68;;
78873;SDS011;68250;43.514;1.494;2023-12-20T04:07:55;12.00;;;6.77;;
78873;SDS011;68250;43.514;1.494;2023-12-20T04:10:20;13.37;;;7.33;;
78873;SDS011;68250;43.514;1.494;2023-12-20T04:12:46;12.57;;;7.45;;
78873;SDS011;68250;43.514;1.494;2023-12-20T04:15:12;11.63;;;7.07;;
78873;SDS011;68250;43.514;1.494;2023-12-20T04:17:37;13.57;;;7.50;;
78873;SDS011;68250;43.514;1.494;2023-12-20T04:20:03;12.05;;;7.50;;
78873;SDS011;68250;43.514;1.494;2023-12-20T04:22:29;12.95;;;7.43;;
78873;SDS011;68250;43.514;1.494;2023-12-20T04:24:55;15.60;;;7.73;;
78873;SDS011;68250;43.514;1.494;2023-12-20T04:27:20;14.47;;;7.50;;
78873;SDS011;68250;43.514;1.494;2023-12-20T04:29:46;12.50;;;7.35;;
78873;SDS011;68250;43.514;1.494;2023-12-20T04:32:11;12.43;;;6.93;;
78873;SDS011;68250;43.514;1.494;2023-12-20T04:34:37;13.10;;;7.10;;
78873;SDS011;68250;43.514;1.494;2023-12-20T04:37:03;12.57;;;7.05;;
78873;SDS011;68250;43.514;1.494;2023-12-20T04:39:29;12.23;;;6.88;;
78873;SDS011;68250;43.514;1.494;2023-12-20T04:41:54;11.90;;;6.70;;
78873;SDS011;68250;43.514;1.494;2023-12-20T04:44:20;10.70;;;6.57;;
78873;SDS011;68250;43.514;1.494;2023-12-20T04:46:45;10.73;;;6.05;;
78873;SDS011;68250;43.514;1.494;2023-12-20T04:49:11;11.93;;;6.17;;
78873;SDS011;68250;43.514;1.494;2023-12-20T04:51:36;9.77;;;6.07;;
78873;SDS011;68250;43.514;1.494;2023-12-20T04:54:03;9.32;;;5.65;;
78873;SDS011;68250;43.514;1.494;2023-12-20T04:56:28;9.57;;;5.57;;
78873;SDS011;68250;43.514;1.494;2023-12-20T04:58:54;11.55;;;5.82;;
78873;SDS011;68250;43.514;1.494;2023-12-20T05:01:19;8.63;;;5.00;;
78873;SDS011;68250;43.514;1.494;2023-12-20T05:03:45;9.00;;;5.18;;
78873;SDS011;68250;43.514;1.494;2023-12-20T05:06:11;9.30;;;5.17;;
78873;SDS011;68250;43.514;1.494;2023-12-20T05:08:36;8.83;;;4.63;;
78873;SDS011;68250;43.514;1.494;2023-12-20T05:11:02;8.55;;;4.43;;
78873;SDS011;68250;43.514;1.494;2023-12-20T05:13:28;8.50;;;4.40;;
78873;SDS011;68250;43.514;1.494;2023-12-20T05:15:53;9.90;;;4.75;;
78873;SDS011;68250;43.514;1.494;2023-12-20T05:18:20;9.63;;;4.40;;
78873;SDS011;68250;43.514;1.494;2023-12-20T05:20:46;8.43;;;4.05;;
78873;SDS011;68250;43.514;1.494;2023-12-20T05:23:11;7.50;;;4.13;;
78873;SDS011;68250;43.514;1.494;2023-12-20T05:25:38;7.72;;;4.18;;
78873;SDS011;68250;43.514;1.494;2023-12-20T05:28:04;7.88;;;3.90;;
78873;SDS011;68250;43.514;1.494;2023-12-20T05:30:30;9.70;;;4.37;;
78873;SDS011;68250;43.514;1.494;2023-12-20T05:32:55;9.23;;;4.13;;
78873;SDS011;68250;43.514;1.494;2023-12-20T05:35:22;7.15;;;3.80;;
78873;SDS011;68250;43.514;1.494;2023-12-20T05:37:48;6.75;;;3.70;;
78873;SDS011;68250;43.514;1.494;2023-12-20T05:40:14;9.18;;;3.85;;
78873;SDS011;68250;43.514;1.494;2023-12-20T05:42:40;7.20;;;3.73;;
78873;SDS011;68250;43.514;1.494;2023-12-20T05:45:06;7.00;;;3.40;;
78873;SDS011;68250;43.514;1.494;2023-12-20T05:47:31;7.27;;;3.57;;
78873;SDS011;68250;43.514;1.494;2023-12-20T05:49:57;7.20;;;3.15;;
78873;SDS011;68250;43.514;1.494;2023-12-20T05:52:23;7.73;;;3.53;;
78873;SDS011;68250;43.514;1.494;2023-12-20T05:54:48;7.27;;;3.20;;
78873;SDS011;68250;43.514;1.494;2023-12-20T05:57:14;7.50;;;3.05;;
78873;SDS011;68250;43.514;1.494;2023-12-20T05:59:40;7.53;;;3.28;;
78873;SDS011;68250;43.514;1.494;2023-12-20T06:02:06;7.38;;;3.35;;
78873;SDS011;68250;43.514;1.494;2023-12-20T06:04:32;7.40;;;2.90;;
78873;SDS011;68250;43.514;1.494;2023-12-20T06:06:57;5.47;;;2.60;;
78873;SDS011;68250;43.514;1.494;2023-12-20T06:09:23;6.00;;;2.92;;
78873;SDS011;68250;43.514;1.494;2023-12-20T06:11:49;6.30;;;2.83;;
78873;SDS011;68250;43.514;1.494;2023-12-20T06:14:15;5.88;;;2.78;;
78873;SDS011;68250;43.514;1.494;2023-12-20T06:16:41;5.83;;;2.40;;
78873;SDS011;68250;43.514;1.494;2023-12-20T06:19:06;6.78;;;2.70;;
78873;SDS011;68250;43.514;1.494;2023-12-20T06:21:32;5.53;;;2.57;;
78873;SDS011;68250;43.514;1.494;2023-12-20T06:24:00;6.30;;;2.80;;
78873;SDS011;68250;43.514;1.494;2023-12-20T06:26:26;5.93;;;2.45;;
78873;SDS011;68250;43.514;1.494;2023-12-20T06:28:52;5.68;;;2.33;;
78873;SDS011;68250;43.514;1.494;2023-12-20T06:31:17;5.97;;;1.90;;
78873;SDS011;68250;43.514;1.494;2023-12-20T06:33:43;5.20;;;2.67;;
78873;SDS011;68250;43.514;1.494;2023-12-20T06:36:12;5.13;;;2.38;;
78873;SDS011;68250;43.514;1.494;2023-12-20T06:38:38;4.50;;;2.13;;
78873;SDS011;68250;43.514;1.494;2023-12-20T06:41:04;7.03;;;2.88;;
78873;SDS011;68250;43.514;1.494;2023-12-20T06:46:27;5.40;;;2.20;;
78873;SDS011;68250;43.514;1.494;2023-12-20T06:48:52;5.43;;;2.40;;
78873;SDS011;68250;43.514;1.494;2023-12-20T06:52:22;4.63;;;2.10;;
78873;SDS011;68250;43.514;1.494;2023-12-20T06:55:32;4.68;;;1.90;;
78873;SDS011;68250;43.514;1.494;2023-12-20T07:00:48;6.10;;;2.88;;
78873;SDS011;68250;43.514;1.494;2023-12-20T07:03:15;6.68;;;2.75;;
78873;SDS011;68250;43.514;1.494;2023-12-20T07:05:41;6.17;;;2.87;;
78873;SDS011;68250;43.514;1.494;2023-12-20T07:08:07;7.15;;;3.17;;
78873;SDS011;68250;43.514;1.494;2023-12-20T07:10:32;7.07;;;3.07;;
78873;SDS011;68250;43.514;1.494;2023-12-20T07:12:58;4.55;;;2.22;;
78873;SDS011;68250;43.514;1.494;2023-12-20T07:15:24;7.73;;;3.30;;
78873;SDS011;68250;43.514;1.494;2023-12-20T07:17:49;5.20;;;2.43;;
78873;SDS011;68250;43.514;1.494;2023-12-20T07:26:36;5.07;;;2.20;;
78873;SDS011;68250;43.514;1.494;2023-12-20T07:29:03;5.63;;;1.80;;
78873;SDS011;68250;43.514;1.494;2023-12-20T07:31:29;5.55;;;1.85;;
78873;SDS011;68250;43.514;1.494;2023-12-20T07:33:54;5.10;;;2.00;;
78873;SDS011;68250;43.514;1.494;2023-12-20T07:36:20;4.73;;;2.20;;
78873;SDS011;68250;43.514;1.494;2023-12-20T07:38:46;5.70;;;1.73;;
78873;SDS011;68250;43.514;1.494;2023-12-20T07:41:12;3.97;;;1.60;;
78873;SDS011;68250;43.514;1.494;2023-12-20T07:43:38;3.67;;;1.40;;
78873;SDS011;68250;43.514;1.494;2023-12-20T07:46:04;3.60;;;1.53;;
78873;SDS011;68250;43.514;1.494;2023-12-20T07:48:30;3.88;;;1.55;;
78873;SDS011;68250;43.514;1.494;2023-12-20T07:50:56;3.72;;;1.60;;
78873;SDS011;68250;43.514;1.494;2023-12-20T07:53:22;3.97;;;1.70;;
78873;SDS011;68250;43.514;1.494;2023-12-20T07:55:47;4.07;;;1.70;;
78873;SDS011;68250;43.514;1.494;2023-12-20T07:58:13;5.03;;;1.90;;
78873;SDS011;68250;43.514;1.494;2023-12-20T08:00:38;5.10;;;2.20;;
78873;SDS011;68250;43.514;1.494;2023-12-20T08:03:04;4.17;;;1.77;;
78873;SDS011;68250;43.514;1.494;2023-12-20T08:05:29;4.28;;;1.80;;
78873;SDS011;68250;43.514;1.494;2023-12-20T08:07:55;3.93;;;1.60;;
78873;SDS011;68250;43.514;1.494;2023-12-20T08:10:20;4.00;;;1.70;;
78873;SDS011;68250;43.514;1.494;2023-12-20T08:12:46;4.50;;;2.10;;
78873;SDS011;68250;43.514;1.494;2023-12-20T08:15:11;4.10;;;1.60;;
78873;SDS011;68250;43.514;1.494;2023-12-20T08:17:37;4.83;;;2.40;;
78873;SDS011;68250;43.514;1.494;2023-12-20T08:20:03;4.95;;;2.60;;
78873;SDS011;68250;43.514;1.494;2023-12-20T08:22:29;6.13;;;2.90;;
78873;SDS011;68250;43.514;1.494;2023-12-20T08:24:55;5.25;;;2.70;;
78873;SDS011;68250;43.514;1.494;2023-12-20T08:27:20;6.10;;;3.13;;
78873;SDS011;68250;43.514;1.494;2023-12-20T08:29:46;4.47;;;2.37;;
78873;SDS011;68250;43.514;1.494;2023-12-20T08:32:12;5.07;;;2.22;;
78873;SDS011;68250;43.514;1.494;2023-12-20T08:34:37;4.80;;;2.33;;
78873;SDS011;68250;43.514;1.494;2023-12-20T08:37:03;6.28;;;2.90;;
78873;SDS011;68250;43.514;1.494;2023-12-20T08:39:28;4.13;;;1.90;;
78873;SDS011;68250;43.514;1.494;2023-12-20T08:41:55;4.68;;;2.20;;
78873;SDS011;68250;43.514;1.494;2023-12-20T08:44:20;4.93;;;1.97;;
78873;SDS011;68250;43.514;1.494;2023-12-20T08:46:47;4.22;;;1.73;;
78873;SDS011;68250;43.514;1.494;2023-12-20T08:49:13;4.70;;;1.60;;
78873;SDS011;68250;43.514;1.494;2023-12-20T08:51:39;4.50;;;2.07;;
78873;SDS011;68250;43.514;1.494;2023-12-20T08:54:06;4.65;;;2.00;;
78873;SDS011;68250;43.514;1.494;2023-12-20T08:59:55;4.63;;;2.13;;
78873;SDS011;68250;43.514;1.494;2023-12-20T09:02:20;6.70;;;2.50;;
78873;SDS011;68250;43.514;1.494;2023-12-20T09:04:46;5.47;;;2.40;;
78873;SDS011;68250;43.514;1.494;2023-12-20T09:07:21;5.70;;;2.50;;
78873;SDS011;68250;43.514;1.494;2023-12-20T09:09:50;5.65;;;2.67;;
78873;SDS011;68250;43.514;1.494;2023-12-20T09:12:19;5.43;;;2.20;;
78873;SDS011;68250;43.514;1.494;2023-12-20T09:14:49;6.53;;;2.65;;
78873;SDS011;68250;43.514;1.494;2023-12-20T09:17:15;5.47;;;2.53;;
78873;SDS011;68250;43.514;1.494;2023-12-20T09:19:42;6.05;;;2.70;;
78873;SDS011;68250;43.514;1.494;2023-12-20T09:22:09;5.47;;;2.60;;
78873;SDS011;68250;43.514;1.494;2023-12-20T09:24:35;8.65;;;3.05;;
78873;SDS011;68250;43.514;1.494;2023-12-20T09:27:01;6.45;;;2.70;;
78873;SDS011;68250;43.514;1.494;2023-12-20T09:29:26;7.10;;;2.70;;
78873;SDS011;68250;43.514;1.494;2023-12-20T09:31:52;5.70;;;3.00;;
78873;SDS011;68250;43.514;1.494;2023-12-20T09:34:18;6.40;;;3.42;;
78873;SDS011;68250;43.514;1.494;2023-12-20T09:36:43;5.63;;;2.47;;
78873;SDS011;68250;43.514;1.494;2023-12-20T09:39:15;5.55;;;2.50;;
78873;SDS011;68250;43.514;1.494;2023-12-20T09:41:45;6.68;;;3.25;;
78873;SDS011;68250;43.514;1.494;2023-12-20T09:44:17;7.67;;;3.23;;
78873;SDS011;68250;43.514;1.494;2023-12-20T09:46:44;6.20;;;2.50;;
78873;SDS011;68250;43.514;1.494;2023-12-20T09:49:11;5.85;;;2.33;;
78873;SDS011;68250;43.514;1.494;2023-12-20T09:51:37;4.63;;;2.20;;
78873;SDS011;68250;43.514;1.494;2023-12-20T09:54:03;5.77;;;2.40;;
78873;SDS011;68250;43.514;1.494;2023-12-20T09:56:29;6.47;;;2.25;;
78873;SDS011;68250;43.514;1.494;2023-12-20T09:58:55;5.82;;;1.83;;
78873;SDS011;68250;43.514;1.494;2023-12-20T10:01:21;5.15;;;1.58;;
78873;SDS011;68250;43.514;1.494;2023-12-20T10:03:48;6.20;;;1.80;;
78873;SDS011;68250;43.514;1.494;2023-12-20T10:06:16;5.25;;;1.92;;
78873;SDS011;68250;43.514;1.494;2023-12-20T10:08:42;6.13;;;2.08;;
78873;SDS011;68250;43.514;1.494;2023-12-20T10:11:07;4.57;;;1.77;;
78873;SDS011;68250;43.514;1.494;2023-12-20T10:13:33;5.13;;;1.50;;
78873;SDS011;68250;43.514;1.494;2023-12-20T10:15:59;5.00;;;1.77;;
78873;SDS011;68250;43.514;1.494;2023-12-20T10:18:24;4.82;;;1.70;;
78873;SDS011;68250;43.514;1.494;2023-12-20T10:20:50;4.40;;;1.63;;
78873;SDS011;68250;43.514;1.494;2023-12-20T10:23:15;5.03;;;1.20;;
78873;SDS011;68250;43.514;1.494;2023-12-20T10:25:42;5.97;;;1.38;;
78873;SDS011;68250;43.514;1.494;2023-12-20T10:28:09;6.35;;;1.40;;
78873;SDS011;68250;43.514;1.494;2023-12-20T10:30:35;5.28;;;1.45;;
78873;SDS011;68250;43.514;1.494;2023-12-20T10:33:01;5.83;;;1.90;;
78873;SDS011;68250;43.514;1.494;2023-12-20T10:35:26;6.07;;;2.07;;
78873;SDS011;68250;43.514;1.494;2023-12-20T10:37:54;4.70;;;1.77;;
78873;SDS011;68250;43.514;1.494;2023-12-20T10:40:23;5.30;;;1.90;;
78873;SDS011;68250;43.514;1.494;2023-12-20T10:42:51;6.05;;;1.70;;
78873;SDS011;68250;43.514;1.494;2023-12-20T10:45:17;3.90;;;1.50;;
78873;SDS011;68250;43.514;1.494;2023-12-20T10:47:43;4.50;;;1.30;;
78873;SDS011;68250;43.514;1.494;2023-12-20T10:50:11;6.88;;;2.05;;
78873;SDS011;68250;43.514;1.494;2023-12-20T10:52:37;5.40;;;2.30;;
78873;SDS011;68250;43.514;1.494;2023-12-20T10:55:03;5.20;;;2.03;;
78873;SDS011;68250;43.514;1.494;2023-12-20T10:57:29;7.18;;;2.08;;
78873;SDS011;68250;43.514;1.494;2023-12-20T11:03:09;4.40;;;1.70;;
78873;SDS011;68250;43.514;1.494;2023-12-20T11:14:59;5.50;;;1.57;;
78873;SDS011;68250;43.514;1.494;2023-12-20T11:17:29;5.55;;;1.75;;
78873;SDS011;68250;43.514;1.494;2023-12-20T11:22:20;5.27;;;1.70;;
78873;SDS011;68250;43.514;1.494;2023-12-20T11:24:46;4.32;;;1.10;;
78873;SDS011;68250;43.514;1.494;2023-12-20T11:27:12;3.97;;;1.13;;
78873;SDS011;68250;43.514;1.494;2023-12-20T11:29:38;3.78;;;1.20;;
78873;SDS011;68250;43.514;1.494;2023-12-20T11:34:50;4.10;;;1.00;;
78873;SDS011;68250;43.514;1.494;2023-12-20T11:37:19;3.63;;;1.10;;
78873;SDS011;68250;43.514;1.494;2023-12-20T11:39:45;6.00;;;1.15;;
78873;SDS011;68250;43.514;1.494;2023-12-20T11:42:10;4.60;;;0.90;;
78873;SDS011;68250;43.514;1.494;2023-12-20T11:44:36;5.20;;;0.90;;
78873;SDS011;68250;43.514;1.494;2023-12-20T11:47:03;5.53;;;1.00;;
78873;SDS011;68250;43.514;1.494;2023-12-20T11:52:52;6.43;;;1.00;;
78873;SDS011;68250;43.514;1.494;2023-12-20T11:55:19;6.20;;;1.13;;
78873;SDS011;68250;43.514;1.494;2023-12-20T11:57:44;4.63;;;0.82;;
78873;SDS011;68250;43.514;1.494;2023-12-20T12:00:10;3.93;;;0.87;;
78873;SDS011;68250;43.514;1.494;2023-12-20T12:02:36;4.95;;;1.00;;
78873;SDS011;68250;43.514;1.494;2023-12-20T12:05:02;7.20;;;0.97;;
78873;SDS011;68250;43.514;1.494;2023-12-20T12:07:30;4.40;;;0.63;;
78873;SDS011;68250;43.514;1.494;2023-12-20T12:09:57;4.43;;;0.80;;
78873;SDS011;68250;43.514;1.494;2023-12-20T12:15:45;7.37;;;1.13;;
78873;SDS011;68250;43.514;1.494;2023-12-20T12:21:00;6.30;;;0.80;;
78873;SDS011;68250;43.514;1.494;2023-12-20T12:23:27;4.25;;;0.80;;
78873;SDS011;68250;43.514;1.494;2023-12-20T12:25:53;4.53;;;0.70;;
78873;SDS011;68250;43.514;1.494;2023-12-20T12:28:21;5.78;;;0.70;;
78873;SDS011;68250;43.514;1.494;2023-12-20T12:30:58;5.57;;;0.65;;
78873;SDS011;68250;43.514;1.494;2023-12-20T12:33:25;6.85;;;0.70;;
78873;SDS011;68250;43.514;1.494;2023-12-20T12:35:51;5.97;;;0.80;;
78873;SDS011;68250;43.514;1.494;2023-12-20T12:38:19;4.95;;;0.88;;
78873;SDS011;68250;43.514;1.494;2023-12-20T12:40:46;3.15;;;0.40;;
78873;SDS011;68250;43.514;1.494;2023-12-20T12:43:12;4.10;;;0.50;;
78873;SDS011;68250;43.514;1.494;2023-12-20T12:45:38;4.85;;;0.63;;
78873;SDS011;68250;43.514;1.494;2023-12-20T12:48:04;5.33;;;0.80;;
78873;SDS011;68250;43.514;1.494;2023-12-20T12:50:31;3.72;;;0.70;;
78873;SDS011;68250;43.514;1.494;2023-12-20T12:52:57;4.63;;;0.50;;
78873;SDS011;68250;43.514;1.494;2023-12-20T12:55:22;5.17;;;0.70;;
78873;SDS011;68250;43.514;1.494;2023-12-20T12:58:00;3.30;;;0.50;;
78873;SDS011;68250;43.514;1.494;2023-12-20T13:00:26;3.78;;;0.68;;
78873;SDS011;68250;43.514;1.494;2023-12-20T13:02:52;4.40;;;0.63;;
78873;SDS011;68250;43.514;1.494;2023-12-20T13:05:18;3.30;;;0.40;;
78873;SDS011;68250;43.514;1.494;2023-12-20T13:07:43;5.77;;;0.40;;
78873;SDS011;68250;43.514;1.494;2023-12-20T13:10:10;6.45;;;0.70;;
78873;SDS011;68250;43.514;1.494;2023-12-20T13:12:36;4.07;;;0.63;;
78873;SDS011;68250;43.514;1.494;2023-12-20T13:15:02;5.47;;;0.70;;
78873;SDS011;68250;43.514;1.494;2023-12-20T13:17:29;4.55;;;0.47;;
78873;SDS011;68250;43.514;1.494;2023-12-20T13:19:55;5.72;;;0.52;;
78873;SDS011;68250;43.514;1.494;2023-12-20T13:22:20;4.50;;;0.50;;
78873;SDS011;68250;43.514;1.494;2023-12-20T13:24:46;5.67;;;0.30;;
78873;SDS011;68250;43.514;1.494;2023-12-20T13:27:11;4.93;;;0.40;;
78873;SDS011;68250;43.514;1.494;2023-12-20T13:29:37;5.87;;;0.60;;
78873;SDS011;68250;43.514;1.494;2023-12-20T13:32:02;4.10;;;0.40;;
78873;SDS011;68250;43.514;1.494;2023-12-20T13:34:29;4.78;;;0.60;;
78873;SDS011;68250;43.514;1.494;2023-12-20T13:36:54;6.75;;;0.50;;
78873;SDS011;68250;43.514;1.494;2023-12-20T13:39:21;4.53;;;0.40;;
78873;SDS011;68250;43.514;1.494;2023-12-20T13:41:47;4.60;;;0.50;;
78873;SDS011;68250;43.514;1.494;2023-12-20T13:44:12;5.90;;;1.37;;
78873;SDS011;68250;43.514;1.494;2023-12-20T13:46:38;5.05;;;1.20;;
78873;SDS011;68250;43.514;1.494;2023-12-20T13:49:05;4.30;;;0.60;;
78873;SDS011;68250;43.514;1.494;2023-12-20T13:51:30;5.27;;;1.07;;
78873;SDS011;68250;43.514;1.494;2023-12-20T13:53:56;6.25;;;0.77;;
78873;SDS011;68250;43.514;1.494;2023-12-20T13:56:22;5.17;;;0.77;;
78873;SDS011;68250;43.514;1.494;2023-12-20T13:58:48;7.55;;;1.10;;
78873;SDS011;68250;43.514;1.494;2023-12-20T14:01:15;6.35;;;0.90;;
78873;SDS011;68250;43.514;1.494;2023-12-20T14:03:40;6.30;;;1.97;;
78873;SDS011;68250;43.514;1.494;2023-12-20T14:06:06;6.80;;;2.40;;
78873;SDS011;68250;43.514;1.494;2023-12-20T14:08:32;5.50;;;0.77;;
78873;SDS011;68250;43.514;1.494;2023-12-20T14:10:57;5.97;;;0.93;;
78873;SDS011;68250;43.514;1.494;2023-12-20T14:13:23;4.28;;;0.60;;
78873;SDS011;68250;43.514;1.494;2023-12-20T14:15:48;5.60;;;0.80;;
78873;SDS011;68250;43.514;1.494;2023-12-20T14:18:14;5.68;;;0.63;;
78873;SDS011;68250;43.514;1.494;2023-12-20T14:20:40;5.05;;;0.80;;
78873;SDS011;68250;43.514;1.494;2023-12-20T14:23:07;7.57;;;0.98;;
78873;SDS011;68250;43.514;1.494;2023-12-20T14:25:34;5.18;;;1.00;;
78873;SDS011;68250;43.514;1.494;2023-12-20T14:28:02;7.13;;;0.83;;
78873;SDS011;68250;43.514;1.494;2023-12-20T14:30:29;5.97;;;0.90;;
78873;SDS011;68250;43.514;1.494;2023-12-20T14:32:54;6.20;;;0.75;;
78873;SDS011;68250;43.514;1.494;2023-12-20T14:35:20;6.50;;;0.80;;
78873;SDS011;68250;43.514;1.494;2023-12-20T14:37:46;5.20;;;0.80;;
78873;SDS011;68250;43.514;1.494;2023-12-20T14:40:11;7.03;;;0.68;;
78873;SDS011;68250;43.514;1.494;2023-12-20T14:42:41;5.80;;;0.60;;
78873;SDS011;68250;43.514;1.494;2023-12-20T14:45:08;5.22;;;0.40;;
78873;SDS011;68250;43.514;1.494;2023-12-20T14:47:34;3.63;;;0.60;;
78873;SDS011;68250;43.514;1.494;2023-12-20T14:50:02;4.55;;;1.08;;
78873;SDS011;68250;43.514;1.494;2023-12-20T14:52:29;4.68;;;0.98;;
78873;SDS011;68250;43.514;1.494;2023-12-20T14:54:54;5.80;;;0.80;;
78873;SDS011;68250;43.514;1.494;2023-12-20T14:57:20;7.47;;;0.90;;
78873;SDS011;68250;43.514;1.494;2023-12-20T14:59:45;4.25;;;0.60;;
78873;SDS011;68250;43.514;1.494;2023-12-20T15:02:11;6.88;;;0.95;;
78873;SDS011;68250;43.514;1.494;2023-12-20T15:04:37;5.17;;;0.80;;
78873;SDS011;68250;43.514;1.494;2023-12-20T15:07:02;8.27;;;1.85;;
78873;SDS011;68250;43.514;1.494;2023-12-20T15:09:31;6.60;;;1.75;;
78873;SDS011;68250;43.514;1.494;2023-12-20T15:11:56;15.23;;;6.90;;
78873;SDS011;68250;43.514;1.494;2023-12-20T15:17:38;9.63;;;2.13;;
78873;SDS011;68250;43.514;1.494;2023-12-20T15:20:03;7.40;;;1.58;;
78873;SDS011;68250;43.514;1.494;2023-12-20T15:22:30;6.50;;;1.50;;
78873;SDS011;68250;43.514;1.494;2023-12-20T15:24:55;5.45;;;1.10;;
78873;SDS011;68250;43.514;1.494;2023-12-20T15:27:22;5.35;;;1.45;;
78873;SDS011;68250;43.514;1.494;2023-12-20T15:29:48;18.83;;;7.67;;
78873;SDS011;68250;43.514;1.494;2023-12-20T15:32:15;18.33;;;8.38;;
78873;SDS011;68250;43.514;1.494;2023-12-20T15:34:41;12.20;;;4.53;;
78873;SDS011;68250;43.514;1.494;2023-12-20T15:37:06;18.30;;;7.00;;